Citta Di Savona — IMDS — position and weather

sailwx.info

Track history (hours):
 
Tides and Currents Weather Stations Pressure Air Temp Water Temp Dewpoint Dewpoint Depression Visibility Wind Speed Wind Dir Waves Ship Positions

Citta Di Savona

Last reported at 2014-Sep-20 10:20 UTC. Time now 2014-Sep-21 10:03 UTC.
Position N 44°19' E 008°29'.

Length 31 m; draft 4.2 m.

Type: Tug. MMSI: 247402000.

Date/timePositionNaut miles runAvg speedWind from/ knotsBaromVisibWave heightAir tempDewpointWater temp
2014-Sep-20 10:20N 44°19' E 008°29'1 0.2
2014-Sep-20 06:09N 44°19' E 008°30'1 0.4
2014-Sep-20 04:16N 44°18' E 008°29'0 0.0
2014-Sep-19 06:33N 44°19' E 008°30'3 3.2
2014-Sep-19 05:33N 44°16' E 008°27'0 0.2
2014-Sep-19 04:26N 44°16' E 008°27'4 4.4
2014-Sep-19 03:33N 44°19' E 008°30'4 3.8
2014-Sep-19 02:33N 44°16' E 008°27'4 0.9
2014-Sep-18 22:33N 44°19' E 008°30'1 0.1
2014-Sep-18 11:28N 44°18' E 008°29'0 0.0
2014-Sep-18 10:25N 44°18' E 008°29'0 0.0
2014-Sep-18 06:03N 44°19' E 008°29'1 1.1
2014-Sep-18 05:27N 44°19' E 008°30'1 0.1
2014-Sep-17 22:08N 44°19' E 008°29'0 0.0
2014-Sep-17 16:17N 44°19' E 008°29'3 4.5
2014-Sep-17 15:33N 44°16' E 008°27'1 1.2
2014-Sep-17 14:31N 44°17' E 008°28'3 0.3
2014-Sep-17 04:20N 44°19' E 008°30'1 0.8
2014-Sep-17 03:21N 44°18' E 008°29'0 0.0
2014-Sep-17 02:18N 44°18' E 008°29'0 0.0
2014-Sep-17 01:09N 44°18' E 008°29'0 0.0
2014-Sep-16 23:33N 44°18' E 008°29'0 0.0
2014-Sep-16 22:21N 44°18' E 008°29'1 0.2
2014-Sep-16 18:32N 44°18' E 008°30'2 2.0
2014-Sep-16 17:31N 44°17' E 008°28'3 2.0
2014-Sep-16 16:05N 44°19' E 008°30'1 0.0
2014-Sep-15 11:23N 44°18' E 008°29'0 0.0
2014-Sep-15 09:18N 44°18' E 008°29'2 2.0
2014-Sep-15 08:17N 44°17' E 008°28'0 0.2
2014-Sep-15 07:32N 44°17' E 008°28'1 0.6
2014-Sep-15 06:24N 44°17' E 008°29'3 3.0
2014-Sep-15 05:31N 44°19' E 008°30'0 0.2
2014-Sep-15 04:28N 44°19' E 008°30'1 0.1
2014-Sep-14 19:27N 44°18' E 008°29'0 0.0
2014-Sep-13 07:27N 44°18' E 008°29'0 0.0
2014-Sep-11 11:25N 44°19' E 008°29'3 0.6
2014-Sep-11 06:23N 44°16' E 008°28'2 1.2
2014-Sep-11 04:26N 44°18' E 008°30'  
Track history (hours):
 
Tides and Currents Weather Stations Pressure Air Temp Water Temp Dewpoint Dewpoint Depression Visibility Wind Speed Wind Dir Waves Ship Positions

Citta Di Savona

Last reported at 2014-Sep-20 10:20 UTC. Time now 2014-Sep-21 10:03 UTC.
Position N 44°19' E 008°29'.

Length 31 m; draft 4.2 m.

Type: Tug. MMSI: 247402000.

Date/timePositionNaut miles runAvg speedWind from/ knotsBaromVisibWave heightAir tempDewpointWater temp
2014-Sep-20 10:20N 44°19' E 008°29'1 0.2
2014-Sep-20 06:09N 44°19' E 008°30'1 0.4
2014-Sep-20 04:16N 44°18' E 008°29'0 0.0
2014-Sep-19 06:33N 44°19' E 008°30'3 3.2
2014-Sep-19 05:33N 44°16' E 008°27'0 0.2
2014-Sep-19 04:26N 44°16' E 008°27'4 4.4
2014-Sep-19 03:33N 44°19' E 008°30'4 3.8
2014-Sep-19 02:33N 44°16' E 008°27'4 0.9
2014-Sep-18 22:33N 44°19' E 008°30'1 0.1
2014-Sep-18 11:28N 44°18' E 008°29'0 0.0
2014-Sep-18 10:25N 44°18' E 008°29'0 0.0
2014-Sep-18 06:03N 44°19' E 008°29'1 1.1
2014-Sep-18 05:27N 44°19' E 008°30'1 0.1
2014-Sep-17 22:08N 44°19' E 008°29'0 0.0
2014-Sep-17 16:17N 44°19' E 008°29'3 4.5
2014-Sep-17 15:33N 44°16' E 008°27'1 1.2
2014-Sep-17 14:31N 44°17' E 008°28'3 0.3
2014-Sep-17 04:20N 44°19' E 008°30'1 0.8
2014-Sep-17 03:21N 44°18' E 008°29'0 0.0
2014-Sep-17 02:18N 44°18' E 008°29'0 0.0
2014-Sep-17 01:09N 44°18' E 008°29'0 0.0
2014-Sep-16 23:33N 44°18' E 008°29'0 0.0
2014-Sep-16 22:21N 44°18' E 008°29'1 0.2
2014-Sep-16 18:32N 44°18' E 008°30'2 2.0
2014-Sep-16 17:31N 44°17' E 008°28'3 2.0
2014-Sep-16 16:05N 44°19' E 008°30'1 0.0
2014-Sep-15 11:23N 44°18' E 008°29'0 0.0
2014-Sep-15 09:18N 44°18' E 008°29'2 2.0
2014-Sep-15 08:17N 44°17' E 008°28'0 0.2
2014-Sep-15 07:32N 44°17' E 008°28'1 0.6
2014-Sep-15 06:24N 44°17' E 008°29'3 3.0
2014-Sep-15 05:31N 44°19' E 008°30'0 0.2
2014-Sep-15 04:28N 44°19' E 008°30'1 0.1
2014-Sep-14 19:27N 44°18' E 008°29'0 0.0
2014-Sep-13 07:27N 44°18' E 008°29'0 0.0
2014-Sep-11 11:25N 44°19' E 008°29'3 0.6
2014-Sep-11 06:23N 44°16' E 008°28'2 1.2
2014-Sep-11 04:26N 44°18' E 008°30'  

Dump ship's entire track history